createdAt,value
2023-01-11T00:00:03.949Z,145.000000
2023-01-11T00:01:01.157Z,145.000000
2023-01-11T00:02:01.255Z,145.000000
2023-01-11T00:03:01.160Z,157.500000
2023-01-11T00:04:01.275Z,157.500000
2023-01-11T00:05:01.674Z,157.500000
2023-01-11T00:06:01.323Z,145.000000
2023-01-11T00:07:01.196Z,140.000000
2023-01-11T00:08:01.256Z,150.000000
2023-01-11T00:09:01.211Z,150.000000
2023-01-11T00:10:02.050Z,167.500000
2023-01-11T00:11:00.239Z,167.500000
2023-01-11T00:12:00.324Z,167.500000
2023-01-11T00:13:00.220Z,130.000000
2023-01-11T00:14:00.295Z,130.000000
2023-01-11T00:15:00.802Z,130.000000
2023-01-11T00:16:00.333Z,147.500000
2023-01-11T00:17:00.269Z,147.500000
2023-01-11T00:18:00.375Z,147.500000
2023-01-11T00:19:00.266Z,142.500000
2023-01-11T00:20:01.020Z,142.500000
2023-01-11T00:21:00.312Z,142.500000
2023-01-11T00:22:00.367Z,142.500000
2023-01-11T00:23:00.310Z,147.500000
2023-01-11T00:24:00.420Z,147.500000
2023-01-11T00:25:00.829Z,147.500000
2023-01-11T00:26:00.375Z,145.000000
2023-01-11T00:27:00.335Z,145.000000
2023-01-11T00:28:00.416Z,160.000000
2023-01-11T00:29:00.340Z,160.000000
2023-01-11T00:30:01.052Z,160.000000
2023-01-11T00:31:00.487Z,150.000000
2023-01-11T00:32:00.450Z,150.000000
2023-01-11T00:33:00.355Z,150.000000
2023-01-11T00:34:00.427Z,150.000000
2023-01-11T00:35:00.868Z,150.000000
2023-01-11T00:36:00.497Z,142.500000
2023-01-11T00:37:00.399Z,142.500000
2023-01-11T00:38:00.473Z,142.500000
2023-01-11T00:39:00.413Z,157.500000
2023-01-11T00:40:01.141Z,157.500000
2023-01-11T00:41:00.391Z,155.000000
2023-01-11T00:42:00.497Z,155.000000
2023-01-11T00:43:00.413Z,155.000000
2023-01-11T00:44:00.475Z,155.000000
2023-01-11T00:45:00.937Z,155.000000
2023-01-11T00:46:00.539Z,150.000000
2023-01-11T00:47:00.458Z,150.000000
2023-01-11T00:48:00.572Z,150.000000
2023-01-11T00:49:00.431Z,135.000000
2023-01-11T00:50:01.591Z,135.000000
2023-01-11T00:51:00.494Z,135.000000
2023-01-11T00:52:00.591Z,140.000000
2023-01-11T00:53:00.472Z,140.000000
2023-01-11T00:54:00.585Z,137.500000
2023-01-11T00:55:01.040Z,137.500000
2023-01-11T00:56:00.554Z,132.500000
2023-01-11T00:57:00.507Z,132.500000
2023-01-11T00:58:00.608Z,132.500000
2023-01-11T00:59:00.504Z,137.500000
2023-01-11T01:00:01.612Z,137.500000
2023-01-11T01:01:00.547Z,137.500000
2023-01-11T01:02:00.620Z,140.000000
2023-01-11T01:03:00.554Z,140.000000
2023-01-11T01:04:00.613Z,142.500000
2023-01-11T01:05:01.056Z,142.500000
2023-01-11T01:06:00.662Z,160.000000
2023-01-11T01:07:00.566Z,160.000000
2023-01-11T01:08:00.644Z,160.000000
2023-01-11T01:09:00.576Z,140.000000
2023-01-11T01:10:01.354Z,140.000000
2023-01-11T01:11:00.602Z,140.000000
2023-01-11T01:12:00.700Z,137.500000
2023-01-11T01:13:00.596Z,137.500000
2023-01-11T01:14:00.688Z,137.500000
2023-01-11T01:15:01.116Z,145.000000
2023-01-11T01:16:00.722Z,145.000000
2023-01-11T01:17:00.615Z,147.500000
2023-01-11T01:18:00.735Z,147.500000
2023-01-11T01:19:00.660Z,137.500000
2023-01-11T01:20:01.360Z,137.500000
2023-01-11T01:21:00.674Z,137.500000
2023-01-11T01:22:00.741Z,130.000000
2023-01-11T01:23:00.720Z,130.000000
2023-01-11T01:24:00.854Z,130.000000
2023-01-11T01:25:01.256Z,145.000000
2023-01-11T01:26:00.758Z,145.000000
2023-01-11T01:27:00.735Z,160.000000
2023-01-11T01:28:00.781Z,160.000000
2023-01-11T01:29:00.726Z,160.000000
2023-01-11T01:30:01.577Z,160.000000
2023-01-11T01:31:00.733Z,160.000000
2023-01-11T01:32:00.821Z,155.000000
2023-01-11T01:33:00.772Z,155.000000
2023-01-11T01:34:00.838Z,155.000000
2023-01-11T01:35:01.233Z,167.500000
2023-01-11T01:36:00.854Z,167.500000
2023-01-11T01:37:00.755Z,145.000000
2023-01-11T01:38:00.861Z,145.000000
2023-01-11T01:39:00.808Z,145.000000
2023-01-11T01:40:01.561Z,137.500000
2023-01-11T01:41:00.797Z,137.500000
2023-01-11T01:42:00.917Z,125.000000
2023-01-11T01:43:00.825Z,125.000000
2023-01-11T01:44:00.878Z,125.000000
2023-01-11T01:45:01.719Z,145.000000
2023-01-11T01:46:00.946Z,145.000000
2023-01-11T01:47:00.844Z,157.500000
2023-01-11T01:48:00.947Z,157.500000
2023-01-11T01:49:00.830Z,157.500000
2023-01-11T01:50:01.541Z,145.000000
2023-01-11T01:51:00.877Z,145.000000
2023-01-11T01:52:00.917Z,145.000000
2023-01-11T01:53:00.864Z,145.000000
2023-01-11T01:54:00.988Z,145.000000
2023-01-11T01:55:01.408Z,147.500000
2023-01-11T01:56:00.981Z,147.500000
2023-01-11T01:57:00.897Z,147.500000
2023-01-11T01:58:00.956Z,147.500000
2023-01-11T01:59:00.896Z,147.500000
2023-01-11T02:00:03.118Z,135.000000
2023-01-11T02:01:01.914Z,135.000000
2023-01-11T02:02:02.064Z,135.000000
2023-01-11T02:03:02.069Z,135.000000
2023-01-11T02:04:02.005Z,140.000000
2023-01-11T02:05:02.505Z,140.000000
2023-01-11T02:06:02.054Z,140.000000
2023-01-11T02:07:01.958Z,142.500000
2023-01-11T02:08:02.031Z,142.500000
2023-01-11T02:09:01.978Z,142.500000
2023-01-11T02:10:03.296Z,135.000000
2023-01-11T02:11:02.013Z,135.000000
2023-01-11T02:12:02.086Z,155.000000
2023-01-11T02:13:02.019Z,155.000000
2023-01-11T02:14:02.070Z,155.000000
2023-01-11T02:15:02.571Z,155.000000
2023-01-11T02:16:02.208Z,155.000000
2023-01-11T02:17:02.015Z,142.500000
2023-01-11T02:18:02.095Z,142.500000
2023-01-11T02:19:02.054Z,142.500000
2023-01-11T02:20:02.931Z,142.500000
2023-01-11T02:21:02.078Z,142.500000
2023-01-11T02:22:02.127Z,150.000000
2023-01-11T02:23:02.055Z,150.000000
2023-01-11T02:24:03.308Z,145.000000
2023-01-11T02:25:02.669Z,145.000000
2023-01-11T02:26:02.211Z,145.000000
2023-01-11T02:27:02.085Z,145.000000
2023-01-11T02:28:02.167Z,145.000000
2023-01-11T02:29:02.087Z,145.000000
2023-01-11T02:30:02.897Z,167.500000
2023-01-11T02:31:02.165Z,167.500000
2023-01-11T02:32:02.172Z,167.500000
2023-01-11T02:33:02.125Z,167.500000
2023-01-11T02:34:02.222Z,167.500000
2023-01-11T02:35:02.695Z,152.500000
2023-01-11T02:36:02.202Z,152.500000
2023-01-11T02:37:02.162Z,147.500000
2023-01-11T02:38:03.321Z,147.500000
2023-01-11T02:39:02.153Z,147.500000
2023-01-11T02:40:03.323Z,155.000000
2023-01-11T02:41:02.174Z,155.000000
2023-01-11T02:42:02.257Z,155.000000
2023-01-11T02:43:01.168Z,147.500000
2023-01-11T02:44:01.251Z,147.500000
2023-01-11T02:45:01.747Z,150.000000
2023-01-11T02:46:01.288Z,150.000000
2023-01-11T02:47:01.192Z,140.000000
2023-01-11T02:48:01.274Z,140.000000
2023-01-11T02:49:01.287Z,140.000000
2023-01-11T02:50:01.984Z,155.000000
2023-01-11T02:51:01.237Z,155.000000
2023-01-11T02:52:01.519Z,155.000000
2023-01-11T02:53:01.222Z,135.000000
2023-01-11T02:54:01.339Z,135.000000
2023-01-11T02:55:01.760Z,135.000000
2023-01-11T02:56:01.322Z,142.500000
2023-01-11T02:57:01.276Z,142.500000
2023-01-11T02:58:00.398Z,145.000000
2023-01-11T02:59:00.252Z,145.000000
2023-01-11T03:00:01.031Z,152.500000
2023-01-11T03:01:00.307Z,152.500000
2023-01-11T03:02:00.431Z,152.500000
2023-01-11T03:03:00.362Z,137.500000
2023-01-11T03:04:00.414Z,137.500000
2023-01-11T03:05:00.891Z,137.500000
2023-01-11T03:06:00.398Z,137.500000
2023-01-11T03:07:00.359Z,137.500000
2023-01-11T03:08:00.399Z,145.000000
2023-01-11T03:09:00.347Z,145.000000
2023-01-11T03:10:01.130Z,145.000000
2023-01-11T03:11:00.363Z,145.000000
2023-01-11T03:12:00.457Z,145.000000
2023-01-11T03:13:00.360Z,145.000000
2023-01-11T03:14:00.444Z,145.000000
2023-01-11T03:15:00.886Z,145.000000
2023-01-11T03:16:00.581Z,140.000000
2023-01-11T03:17:00.390Z,140.000000
2023-01-11T03:18:00.471Z,140.000000
2023-01-11T03:19:00.401Z,140.000000
2023-01-11T03:20:01.137Z,140.000000
2023-01-11T03:21:00.445Z,150.000000
2023-01-11T03:22:00.506Z,150.000000
2023-01-11T03:23:00.447Z,140.000000
2023-01-11T03:24:00.512Z,140.000000
2023-01-11T03:25:00.947Z,132.500000
2023-01-11T03:26:00.513Z,132.500000
2023-01-11T03:27:00.468Z,132.500000
2023-01-11T03:28:00.638Z,140.000000
2023-01-11T03:29:00.455Z,140.000000
2023-01-11T03:30:01.221Z,145.000000
2023-01-11T03:31:00.530Z,145.000000
2023-01-11T03:32:00.558Z,145.000000
2023-01-11T03:33:00.488Z,142.500000
2023-01-11T03:34:00.586Z,142.500000
2023-01-11T03:35:01.395Z,150.000000
2023-01-11T03:36:00.584Z,150.000000
2023-01-11T03:37:00.519Z,150.000000
2023-01-11T03:38:00.594Z,155.000000
2023-01-11T03:39:00.532Z,155.000000
2023-01-11T03:40:01.329Z,155.000000
2023-01-11T03:41:00.550Z,142.500000
2023-01-11T03:42:00.612Z,142.500000
2023-01-11T03:43:00.570Z,145.000000
2023-01-11T03:44:00.649Z,145.000000
2023-01-11T03:45:01.071Z,145.000000
2023-01-11T03:46:00.709Z,155.000000
2023-01-11T03:47:00.682Z,155.000000
2023-01-11T03:48:00.670Z,155.000000
2023-01-11T03:49:00.602Z,160.000000
2023-01-11T03:50:01.385Z,160.000000
2023-01-11T03:51:00.615Z,147.500000
2023-01-11T03:52:00.686Z,147.500000
2023-01-11T03:53:00.595Z,147.500000
2023-01-11T03:54:00.710Z,155.000000
2023-01-11T03:55:01.097Z,155.000000
2023-01-11T03:56:00.697Z,145.000000
2023-01-11T03:57:00.647Z,145.000000
2023-01-11T03:58:00.727Z,145.000000
2023-01-11T03:59:00.657Z,157.500000
2023-01-11T04:00:01.359Z,157.500000
2023-01-11T04:01:00.762Z,152.500000
2023-01-11T04:02:00.762Z,152.500000
2023-01-11T04:03:00.681Z,152.500000
2023-01-11T04:04:00.817Z,150.000000
2023-01-11T04:05:01.215Z,150.000000
2023-01-11T04:06:00.767Z,155.000000
2023-01-11T04:07:00.825Z,155.000000
2023-01-11T04:08:00.763Z,155.000000
2023-01-11T04:09:00.721Z,160.000000
2023-01-11T04:10:01.446Z,160.000000
2023-01-11T04:11:00.712Z,160.000000
2023-01-11T04:12:00.822Z,155.000000
2023-01-11T04:13:00.721Z,155.000000
2023-01-11T04:14:00.797Z,160.000000
2023-01-11T04:15:01.303Z,160.000000
2023-01-11T04:16:00.910Z,160.000000
2023-01-11T04:17:00.760Z,175.000000
2023-01-11T04:18:00.856Z,175.000000
2023-01-11T04:19:00.756Z,162.500000
2023-01-11T04:20:01.477Z,162.500000
2023-01-11T04:21:00.792Z,162.500000
2023-01-11T04:22:00.918Z,145.000000
2023-01-11T04:23:00.774Z,145.000000
2023-01-11T04:24:00.866Z,147.500000
2023-01-11T04:25:01.313Z,147.500000
2023-01-11T04:26:00.902Z,147.500000
2023-01-11T04:27:00.834Z,140.000000
2023-01-11T04:28:00.917Z,140.000000
2023-01-11T04:29:00.840Z,147.500000
2023-01-11T04:30:02.197Z,147.500000
2023-01-11T04:31:00.840Z,147.500000
2023-01-11T04:32:00.922Z,160.000000
2023-01-11T04:33:00.853Z,160.000000
2023-01-11T04:34:01.163Z,160.000000
2023-01-11T04:35:01.349Z,140.000000
2023-01-11T04:36:00.937Z,140.000000
2023-01-11T04:37:00.862Z,145.000000
2023-01-11T04:38:00.943Z,145.000000
2023-01-11T04:39:00.903Z,165.000000
2023-01-11T04:40:01.658Z,165.000000
2023-01-11T04:41:00.880Z,165.000000
2023-01-11T04:42:00.969Z,165.000000
2023-01-11T04:43:00.904Z,165.000000
2023-01-11T04:44:00.960Z,155.000000
2023-01-11T04:45:01.488Z,155.000000
2023-01-11T04:46:01.031Z,155.000000
2023-01-11T04:47:00.921Z,155.000000
2023-01-11T04:48:01.029Z,155.000000
2023-01-11T04:49:00.972Z,142.500000
2023-01-11T04:50:01.719Z,142.500000
2023-01-11T04:51:00.999Z,150.000000
2023-01-11T04:52:01.098Z,150.000000
2023-01-11T04:53:00.994Z,150.000000
2023-01-11T04:54:01.063Z,150.000000
2023-01-11T04:55:01.492Z,150.000000
2023-01-11T04:56:01.062Z,150.000000
2023-01-11T04:57:01.022Z,155.000000
2023-01-11T04:58:01.124Z,155.000000
2023-01-11T04:59:01.010Z,155.000000
2023-01-11T05:00:02.133Z,155.000000
2023-01-11T05:01:01.084Z,155.000000
2023-01-11T05:02:01.100Z,150.000000
2023-01-11T05:03:01.052Z,150.000000
2023-01-11T05:04:01.212Z,162.500000
2023-01-11T05:05:01.899Z,162.500000
2023-01-11T05:06:01.171Z,162.500000
2023-01-11T05:07:01.094Z,150.000000
2023-01-11T05:08:01.165Z,150.000000
2023-01-11T05:09:01.084Z,145.000000
2023-01-11T05:10:01.916Z,145.000000
2023-01-11T05:11:01.069Z,145.000000
2023-01-11T05:12:01.154Z,152.500000
2023-01-11T05:13:01.104Z,152.500000
2023-01-11T05:14:01.175Z,157.500000
2023-01-11T05:15:01.652Z,157.500000
2023-01-11T05:16:01.375Z,157.500000
2023-01-11T05:17:01.104Z,142.500000
2023-01-11T05:18:01.200Z,142.500000
2023-01-11T05:19:01.121Z,135.000000
2023-01-11T05:20:01.867Z,135.000000
2023-01-11T05:21:01.141Z,135.000000
2023-01-11T05:22:01.251Z,155.000000
2023-01-11T05:23:01.139Z,155.000000
2023-01-11T05:24:01.230Z,127.500000
2023-01-11T05:25:02.025Z,127.500000
2023-01-11T05:26:01.231Z,127.500000
2023-01-11T05:27:01.198Z,147.500000
2023-01-11T05:28:00.257Z,147.500000
2023-01-11T05:29:00.167Z,147.500000
2023-01-11T05:30:01.617Z,145.000000
2023-01-11T05:31:00.209Z,145.000000
2023-01-11T05:32:00.328Z,145.000000
2023-01-11T05:33:00.231Z,145.000000
2023-01-11T05:34:00.289Z,145.000000
2023-01-11T05:35:00.693Z,135.000000
2023-01-11T05:36:00.291Z,135.000000
2023-01-11T05:37:00.242Z,142.500000
2023-01-11T05:38:00.491Z,142.500000
2023-01-11T05:39:00.246Z,142.500000
2023-01-11T05:40:00.963Z,145.000000
2023-01-11T05:41:00.248Z,145.000000
2023-01-11T05:42:00.315Z,145.000000
2023-01-11T05:43:00.263Z,145.000000
2023-01-11T05:44:00.345Z,145.000000
2023-01-11T05:45:00.872Z,147.500000
2023-01-11T05:46:00.421Z,147.500000
2023-01-11T05:47:00.291Z,145.000000
2023-01-11T05:48:00.365Z,145.000000
2023-01-11T05:49:00.298Z,145.000000
2023-01-11T05:50:01.049Z,150.000000
2023-01-11T05:51:01.594Z,150.000000
2023-01-11T05:52:00.434Z,150.000000
2023-01-11T05:53:00.349Z,140.000000
2023-01-11T05:54:00.460Z,140.000000
2023-01-11T05:55:00.843Z,155.000000
2023-01-11T05:56:00.417Z,155.000000
2023-01-11T05:57:00.368Z,155.000000
2023-01-11T05:58:00.485Z,145.000000
2023-01-11T05:59:00.369Z,145.000000
2023-01-11T06:00:01.460Z,145.000000
2023-01-11T06:01:00.397Z,145.000000
2023-01-11T06:02:00.551Z,145.000000
2023-01-11T06:03:00.502Z,140.000000
2023-01-11T06:04:00.529Z,140.000000
2023-01-11T06:05:00.893Z,160.000000
2023-01-11T06:06:00.582Z,160.000000
2023-01-11T06:07:00.487Z,160.000000
2023-01-11T06:08:00.497Z,152.500000
2023-01-11T06:09:00.465Z,152.500000
2023-01-11T06:10:01.196Z,177.500000
2023-01-11T06:11:00.439Z,177.500000
2023-01-11T06:12:00.536Z,177.500000
2023-01-11T06:13:00.476Z,152.500000
2023-01-11T06:14:00.551Z,152.500000
2023-01-11T06:15:01.059Z,135.000000
2023-01-11T06:16:00.579Z,135.000000
2023-01-11T06:17:00.509Z,135.000000
2023-01-11T06:18:00.571Z,160.000000
2023-01-11T06:19:00.503Z,160.000000
2023-01-11T06:20:01.557Z,165.000000
2023-01-11T06:21:00.540Z,165.000000
2023-01-11T06:22:00.606Z,150.000000
2023-01-11T06:23:00.532Z,150.000000
2023-01-11T06:24:00.608Z,150.000000
2023-01-11T06:25:01.046Z,150.000000
2023-01-11T06:26:00.624Z,150.000000
2023-01-11T06:27:00.555Z,150.000000
2023-01-11T06:28:00.670Z,150.000000
2023-01-11T06:29:00.562Z,150.000000
2023-01-11T06:30:01.305Z,150.000000
2023-01-11T06:31:00.668Z,150.000000
2023-01-11T06:32:00.709Z,160.000000
2023-01-11T06:33:00.616Z,160.000000
2023-01-11T06:34:00.685Z,160.000000
2023-01-11T06:35:01.115Z,160.000000
2023-01-11T06:36:00.695Z,160.000000
2023-01-11T06:37:00.637Z,160.000000
2023-01-11T06:38:00.701Z,170.000000
2023-01-11T06:39:00.644Z,170.000000
2023-01-11T06:40:01.430Z,147.500000
2023-01-11T06:41:00.647Z,147.500000
2023-01-11T06:42:00.767Z,147.500000
2023-01-11T06:43:00.678Z,152.500000
2023-01-11T06:44:00.752Z,152.500000
2023-01-11T06:45:01.241Z,152.500000
2023-01-11T06:46:00.870Z,127.500000
2023-01-11T06:47:00.703Z,127.500000
2023-01-11T06:48:00.783Z,145.000000
2023-01-11T06:49:00.700Z,145.000000
2023-01-11T06:50:01.445Z,145.000000
2023-01-11T06:51:00.737Z,152.500000
2023-01-11T06:52:00.818Z,152.500000
2023-01-11T06:53:00.741Z,127.500000
2023-01-11T06:54:00.828Z,127.500000
2023-01-11T06:55:01.280Z,142.500000
2023-01-11T06:56:00.813Z,142.500000
2023-01-11T06:57:00.781Z,142.500000
2023-01-11T06:58:00.868Z,147.500000
2023-01-11T06:59:00.749Z,147.500000
2023-01-11T07:00:01.622Z,147.500000
2023-01-11T07:01:00.867Z,160.000000
2023-01-11T07:02:00.859Z,160.000000
2023-01-11T07:03:00.814Z,147.500000
2023-01-11T07:04:00.877Z,147.500000
2023-01-11T07:05:01.378Z,147.500000
2023-01-11T07:06:00.906Z,145.000000
2023-01-11T07:07:00.821Z,145.000000
2023-01-11T07:08:00.909Z,145.000000
2023-01-11T07:09:00.864Z,155.000000
2023-01-11T07:10:01.937Z,155.000000
2023-01-11T07:11:00.855Z,167.500000
2023-01-11T07:12:00.940Z,167.500000
2023-01-11T07:13:00.873Z,167.500000
2023-01-11T07:14:00.931Z,155.000000
2023-01-11T07:15:01.755Z,155.000000
2023-01-11T07:16:01.025Z,145.000000
2023-01-11T07:17:00.895Z,145.000000
2023-01-11T07:18:00.978Z,155.000000
2023-01-11T07:19:00.893Z,155.000000
2023-01-11T07:20:01.679Z,155.000000
2023-01-11T07:21:00.941Z,160.000000
2023-01-11T07:22:01.010Z,160.000000
2023-01-11T07:23:00.989Z,160.000000
2023-01-11T07:24:01.007Z,160.000000
2023-01-11T07:25:01.407Z,160.000000
2023-01-11T07:26:01.014Z,170.000000
2023-01-11T07:27:00.949Z,170.000000
2023-01-11T07:28:01.036Z,172.500000
2023-01-11T07:29:00.950Z,172.500000
2023-01-11T07:30:01.759Z,172.500000
2023-01-11T07:31:01.031Z,240.000000
2023-01-11T07:32:01.049Z,240.000000
2023-01-11T07:33:01.016Z,240.000000
2023-01-11T07:34:01.068Z,180.000000
2023-01-11T07:35:01.515Z,180.000000
2023-01-11T07:36:01.099Z,180.000000
2023-01-11T07:37:01.013Z,185.000000
2023-01-11T07:38:01.097Z,185.000000
2023-01-11T07:39:01.047Z,282.500000
2023-01-11T07:40:01.839Z,282.500000
2023-01-11T07:41:01.051Z,270.000000
2023-01-11T07:42:01.166Z,270.000000
2023-01-11T07:43:01.075Z,270.000000
2023-01-11T07:44:01.147Z,267.500000
2023-01-11T07:45:01.691Z,267.500000
2023-01-11T07:46:01.304Z,267.500000
2023-01-11T07:47:01.154Z,267.500000
2023-01-11T07:48:01.191Z,267.500000
2023-01-11T07:49:01.098Z,240.000000
2023-01-11T07:50:01.846Z,240.000000
2023-01-11T07:51:01.125Z,245.000000
2023-01-11T07:52:01.194Z,245.000000
2023-01-11T07:53:01.099Z,245.000000
2023-01-11T07:54:01.198Z,275.000000
2023-01-11T07:55:01.709Z,275.000000
2023-01-11T07:56:01.201Z,275.000000
2023-01-11T07:57:01.145Z,275.000000
2023-01-11T07:58:01.265Z,275.000000
2023-01-11T07:59:01.149Z,235.000000
2023-01-11T08:00:01.997Z,235.000000
2023-01-11T08:01:01.155Z,270.000000
2023-01-11T08:02:01.261Z,270.000000
2023-01-11T08:03:01.303Z,285.000000
2023-01-11T08:04:01.259Z,285.000000
2023-01-11T08:05:03.259Z,285.000000
2023-01-11T08:06:01.256Z,255.000000
2023-01-11T08:07:01.194Z,255.000000
2023-01-11T08:08:01.277Z,255.000000
2023-01-11T08:09:00.248Z,252.500000
2023-01-11T08:10:01.544Z,252.500000
2023-01-11T08:11:00.219Z,250.000000
2023-01-11T08:12:00.316Z,250.000000
2023-01-11T08:13:00.227Z,255.000000
2023-01-11T08:14:00.299Z,255.000000
2023-01-11T08:15:00.801Z,255.000000
2023-01-11T08:16:00.446Z,237.500000
2023-01-11T08:17:00.250Z,237.500000
2023-01-11T08:18:00.388Z,237.500000
2023-01-11T08:19:00.285Z,287.500000
2023-01-11T08:20:01.008Z,287.500000
2023-01-11T08:21:00.318Z,277.500000
2023-01-11T08:22:00.404Z,277.500000
2023-01-11T08:23:00.280Z,277.500000
2023-01-11T08:24:00.398Z,275.000000
2023-01-11T08:25:00.846Z,275.000000
2023-01-11T08:26:00.372Z,275.000000
2023-01-11T08:27:00.331Z,257.500000
2023-01-11T08:28:00.429Z,257.500000
2023-01-11T08:29:00.330Z,262.500000
2023-01-11T08:30:01.100Z,262.500000
2023-01-11T08:31:00.422Z,262.500000
2023-01-11T08:32:00.401Z,245.000000
2023-01-11T08:33:00.358Z,245.000000
2023-01-11T08:34:00.468Z,262.500000
2023-01-11T08:35:00.862Z,262.500000
2023-01-11T08:36:00.450Z,260.000000
2023-01-11T08:37:00.371Z,260.000000
2023-01-11T08:38:00.436Z,260.000000
2023-01-11T08:39:00.389Z,200.000000
2023-01-11T08:40:01.176Z,200.000000
2023-01-11T08:41:00.392Z,200.000000
2023-01-11T08:42:00.500Z,247.500000
2023-01-11T08:43:00.418Z,247.500000
2023-01-11T08:44:00.499Z,267.500000
2023-01-11T08:45:00.960Z,267.500000
2023-01-11T08:46:00.582Z,267.500000
2023-01-11T08:47:00.441Z,245.000000
2023-01-11T08:48:00.516Z,245.000000
2023-01-11T08:49:00.449Z,245.000000
2023-01-11T08:50:01.387Z,267.500000
2023-01-11T08:51:00.473Z,267.500000
2023-01-11T08:52:00.546Z,245.000000
2023-01-11T08:53:00.458Z,245.000000
2023-01-11T08:54:00.569Z,245.000000
2023-01-11T08:55:01.001Z,257.500000
2023-01-11T08:56:00.552Z,257.500000
2023-01-11T08:57:00.504Z,257.500000
2023-01-11T08:58:00.596Z,257.500000
2023-01-11T08:59:00.516Z,255.000000
2023-01-11T09:00:01.280Z,255.000000
2023-01-11T09:01:00.532Z,255.000000
2023-01-11T09:02:01.064Z,282.500000
2023-01-11T09:03:00.576Z,282.500000
2023-01-11T09:04:02.417Z,282.500000
2023-01-11T09:05:01.429Z,285.000000
2023-01-11T09:06:01.549Z,285.000000
2023-01-11T09:07:00.590Z,290.000000
2023-01-11T09:08:00.673Z,290.000000
2023-01-11T09:09:00.580Z,280.000000
2023-01-11T09:10:01.441Z,280.000000
2023-01-11T09:11:00.609Z,280.000000
2023-01-11T09:12:01.527Z,275.000000
2023-01-11T09:13:00.619Z,275.000000
2023-01-11T09:14:01.068Z,275.000000
2023-01-11T09:15:01.586Z,267.500000
2023-01-11T09:16:00.834Z,265.000000
2023-01-11T09:17:00.628Z,267.500000
2023-01-11T09:18:00.703Z,267.500000
2023-01-11T09:19:00.648Z,267.500000
2023-01-11T09:20:01.359Z,302.500000
2023-01-11T09:21:00.668Z,302.500000
2023-01-11T09:22:00.846Z,302.500000
2023-01-11T09:23:00.671Z,275.000000
2023-01-11T09:24:00.735Z,275.000000
2023-01-11T09:25:01.243Z,257.500000
2023-01-11T09:26:00.810Z,257.500000
2023-01-11T09:27:00.817Z,257.500000
2023-01-11T09:28:00.843Z,247.500000
2023-01-11T09:29:00.729Z,247.500000
2023-01-11T09:30:01.452Z,250.000000
2023-01-11T09:31:00.707Z,250.000000
2023-01-11T09:32:00.850Z,250.000000
2023-01-11T09:33:00.721Z,265.000000
2023-01-11T09:34:00.879Z,265.000000
2023-01-11T09:35:01.255Z,250.000000
2023-01-11T09:36:00.793Z,250.000000
2023-01-11T09:37:00.858Z,250.000000
2023-01-11T09:38:00.930Z,205.000000
2023-01-11T09:39:00.754Z,205.000000
2023-01-11T09:40:01.566Z,225.000000
2023-01-11T09:41:00.768Z,225.000000
2023-01-11T09:42:00.827Z,225.000000
2023-01-11T09:43:00.783Z,257.500000
2023-01-11T09:44:00.940Z,257.500000
2023-01-11T09:45:01.308Z,267.500000
2023-01-11T09:46:01.034Z,267.500000
2023-01-11T09:47:00.803Z,267.500000
2023-01-11T09:48:00.996Z,270.000000
2023-01-11T09:49:00.816Z,270.000000
2023-01-11T09:50:01.613Z,272.500000
2023-01-11T09:51:00.882Z,272.500000
2023-01-11T09:52:01.046Z,235.000000
2023-01-11T09:53:00.823Z,235.000000
2023-01-11T09:54:01.038Z,235.000000
2023-01-11T09:55:01.419Z,250.000000
2023-01-11T09:56:01.233Z,250.000000
2023-01-11T09:57:00.856Z,250.000000
2023-01-11T09:58:01.257Z,277.500000
2023-01-11T09:59:00.844Z,277.500000
2023-01-11T10:00:02.174Z,262.500000
2023-01-11T10:01:01.476Z,262.500000
2023-01-11T10:02:01.307Z,277.500000
2023-01-11T10:03:00.934Z,277.500000
2023-01-11T10:04:01.301Z,277.500000
2023-01-11T10:05:01.413Z,260.000000
2023-01-11T10:06:01.098Z,260.000000
2023-01-11T10:07:00.947Z,260.000000
2023-01-11T10:14:05.853Z,265.000000
2023-01-11T10:18:26.728Z,237.500000
2023-01-11T10:18:28.621Z,245.000000
2023-01-11T10:18:29.328Z,245.000000
2023-01-11T10:18:31.763Z,245.000000
2023-01-11T10:20:01.880Z,237.500000
2023-01-11T10:21:01.039Z,255.000000
2023-01-11T10:22:01.438Z,255.000000
2023-01-11T10:23:01.040Z,260.000000
2023-01-11T10:24:01.273Z,260.000000
2023-01-11T10:25:01.565Z,235.000000
2023-01-11T10:26:01.499Z,235.000000
2023-01-11T10:27:01.077Z,235.000000
2023-01-11T10:28:01.559Z,290.000000
2023-01-11T10:29:01.052Z,290.000000
2023-01-11T10:30:01.828Z,290.000000
2023-01-11T10:31:01.216Z,280.000000
2023-01-11T10:32:01.491Z,280.000000
2023-01-11T10:33:01.102Z,280.000000
2023-01-11T10:34:01.564Z,280.000000
2023-01-11T10:35:01.622Z,290.000000
2023-01-11T10:36:01.391Z,287.500000
2023-01-11T10:37:01.121Z,287.500000
2023-01-11T10:38:01.697Z,297.500000
2023-01-11T10:39:01.156Z,297.500000
2023-01-11T10:40:02.371Z,297.500000
2023-01-11T10:41:01.143Z,282.500000
2023-01-11T10:42:01.705Z,282.500000
2023-01-11T10:43:01.163Z,282.500000
2023-01-11T10:44:01.915Z,300.000000
2023-01-11T10:45:01.701Z,300.000000
2023-01-11T10:46:00.393Z,275.000000
2023-01-11T10:47:00.228Z,275.000000
2023-01-11T10:48:00.262Z,275.000000
2023-01-11T10:49:00.210Z,275.000000
2023-01-11T10:50:01.008Z,275.000000
2023-01-11T10:51:00.214Z,257.500000
2023-01-11T10:52:00.331Z,257.500000
2023-01-11T10:53:00.247Z,257.500000
2023-01-11T10:54:00.318Z,260.000000
2023-01-11T10:55:01.195Z,260.000000
2023-01-11T10:56:00.373Z,252.500000
2023-01-11T10:57:02.536Z,252.500000
2023-01-11T10:58:02.163Z,260.000000
2023-01-11T10:59:00.287Z,260.000000
2023-01-11T11:00:01.153Z,260.000000
2023-01-11T11:01:00.326Z,265.000000
2023-01-11T11:02:00.468Z,265.000000
2023-01-11T11:03:00.361Z,265.000000
2023-01-11T11:04:00.414Z,262.500000
2023-01-11T11:05:00.927Z,262.500000
2023-01-11T11:06:00.432Z,282.500000
2023-01-11T11:07:00.368Z,282.500000
2023-01-11T11:08:00.410Z,282.500000
2023-01-11T11:09:00.384Z,280.000000
2023-01-11T11:10:01.118Z,280.000000
2023-01-11T11:11:00.373Z,257.500000
2023-01-11T11:12:00.460Z,257.500000